createdAt,value
2022-09-21T00:00:28.707Z,21.30
2022-09-21T00:03:20.181Z,19.40
2022-09-21T00:05:50.517Z,20.30
2022-09-21T00:08:21.318Z,18.80
2022-09-21T00:10:52.224Z,23.70
2022-09-21T00:13:23.078Z,20.90
2022-09-21T00:15:53.656Z,22.30
2022-09-21T00:18:25.000Z,19.40
2022-09-21T00:20:55.464Z,20.60
2022-09-21T00:23:27.061Z,19.30
2022-09-21T00:26:06.473Z,19.60
2022-09-21T00:28:38.495Z,21.70
2022-09-21T00:31:10.477Z,20.90
2022-09-21T00:33:42.744Z,19.70
2022-09-21T00:36:14.758Z,20.80
2022-09-21T00:38:46.258Z,19.00
2022-09-21T00:41:16.793Z,21.90
2022-09-21T00:43:49.095Z,19.00
2022-09-21T00:46:24.003Z,22.60
2022-09-21T00:48:54.978Z,22.20
2022-09-21T00:51:25.970Z,20.40
2022-09-21T00:54:00.935Z,23.50
2022-09-21T00:56:31.893Z,22.20
2022-09-21T00:59:04.305Z,24.20
2022-09-21T01:01:34.945Z,21.10
2022-09-21T01:04:07.363Z,24.10
2022-09-21T01:06:39.168Z,27.80
2022-09-21T01:09:10.828Z,23.30
2022-09-21T01:11:47.293Z,23.80
2022-09-21T01:14:27.795Z,20.90
2022-09-21T01:17:04.838Z,20.40
2022-09-21T01:19:49.054Z,22.10
2022-09-21T01:22:27.094Z,19.30
2022-09-21T01:25:03.460Z,25.50
2022-09-21T01:27:56.512Z,19.50
2022-09-21T01:30:27.422Z,20.90
2022-09-21T01:32:59.840Z,18.40
2022-09-21T01:35:33.665Z,20.50
2022-09-21T01:38:06.918Z,20.50
2022-09-21T01:40:40.039Z,20.70
2022-09-21T01:43:12.279Z,21.10
2022-09-21T01:45:45.808Z,17.20
2022-09-21T01:50:47.036Z,20.90
2022-09-21T01:53:19.922Z,21.60
2022-09-21T01:55:51.571Z,20.00
2022-09-21T01:58:25.934Z,25.60
2022-09-21T02:00:58.431Z,22.30
2022-09-21T02:03:31.046Z,23.00
2022-09-21T02:06:02.715Z,21.70
2022-09-21T02:08:33.479Z,21.10
2022-09-21T02:11:06.673Z,20.40
2022-09-21T02:13:39.775Z,24.90
2022-09-21T02:16:18.603Z,23.40
2022-09-21T02:18:57.756Z,21.00
2022-09-21T02:21:32.333Z,23.20
2022-09-21T02:24:09.388Z,21.90
2022-09-21T02:26:42.001Z,19.00
2022-09-21T02:29:18.819Z,21.90
2022-09-21T02:31:51.839Z,19.00
2022-09-21T02:34:26.123Z,25.20
2022-09-21T02:36:59.621Z,24.40
2022-09-21T02:39:34.057Z,23.50
2022-09-21T02:42:07.898Z,25.00
2022-09-21T02:44:40.833Z,26.10
2022-09-21T02:49:42.254Z,24.60
2022-09-21T02:52:14.051Z,25.40
2022-09-21T02:54:47.828Z,22.10
2022-09-21T02:57:19.412Z,20.40
2022-09-21T02:59:50.168Z,22.60
2022-09-21T03:02:20.777Z,23.10
2022-09-21T03:04:52.128Z,23.60
2022-09-21T03:07:23.370Z,25.50
2022-09-21T03:09:54.844Z,22.80
2022-09-21T03:12:26.740Z,21.10
2022-09-21T03:14:57.434Z,22.80
2022-09-21T03:17:28.463Z,18.60
2022-09-21T03:19:59.331Z,23.50
2022-09-21T03:22:30.239Z,23.10
2022-09-21T03:25:01.264Z,21.80
2022-09-21T03:27:32.008Z,23.90
2022-09-21T03:30:02.887Z,22.90
2022-09-21T03:32:34.283Z,23.90
2022-09-21T03:35:05.015Z,21.70
2022-09-21T03:37:39.297Z,22.30
2022-09-21T03:40:13.064Z,23.20
2022-09-21T03:42:44.319Z,20.80
2022-09-21T03:45:14.915Z,27.40
2022-09-21T03:47:45.307Z,21.90
2022-09-21T03:50:16.136Z,24.00
2022-09-21T03:52:46.574Z,30.90
2022-09-21T03:55:17.297Z,21.30
2022-09-21T03:57:47.928Z,23.80
2022-09-21T04:00:19.171Z,24.70
2022-09-21T04:02:49.899Z,23.70
2022-09-21T04:05:20.963Z,22.80
2022-09-21T04:07:51.517Z,23.60
2022-09-21T04:10:27.181Z,22.70
2022-09-21T04:13:00.264Z,25.30
2022-09-21T04:15:31.894Z,21.40
2022-09-21T04:18:03.077Z,24.30
2022-09-21T04:20:33.679Z,23.60
2022-09-21T04:23:04.210Z,20.60
2022-09-21T04:25:34.837Z,19.70
2022-09-21T04:28:05.362Z,19.50
2022-09-21T04:30:37.986Z,19.60
2022-09-21T04:33:08.625Z,17.60
2022-09-21T04:35:39.408Z,19.00
2022-09-21T04:38:10.144Z,18.20
2022-09-21T04:40:40.914Z,19.60
2022-09-21T04:43:14.472Z,20.50
2022-09-21T04:45:45.175Z,24.30
2022-09-21T04:48:15.833Z,19.20
2022-09-21T04:50:49.494Z,19.90
2022-09-21T04:53:20.271Z,19.40
2022-09-21T04:55:51.312Z,24.70
2022-09-21T04:58:24.453Z,18.50
2022-09-21T05:00:56.844Z,19.90
2022-09-21T05:03:28.134Z,19.10
2022-09-21T05:05:59.142Z,21.30
2022-09-21T05:08:47.229Z,22.30
2022-09-21T05:11:18.647Z,19.80
2022-09-21T05:13:49.895Z,18.70
2022-09-21T05:16:20.653Z,18.70
2022-09-21T05:18:54.678Z,15.20
2022-09-21T05:21:25.474Z,15.30
2022-09-21T05:23:56.257Z,17.20
2022-09-21T05:26:27.467Z,19.20
2022-09-21T05:28:59.872Z,15.70
2022-09-21T05:31:40.962Z,19.00
2022-09-21T05:34:19.322Z,18.40
2022-09-21T05:36:55.020Z,17.30
2022-09-21T05:39:26.655Z,20.20
2022-09-21T05:41:58.212Z,19.90
2022-09-21T05:44:29.907Z,16.90
2022-09-21T05:47:03.628Z,18.60
2022-09-21T05:49:50.739Z,18.20
2022-09-21T05:52:24.809Z,21.40
2022-09-21T05:55:00.931Z,22.00
2022-09-21T05:57:36.637Z,19.00
2022-09-21T06:00:13.351Z,19.90
2022-09-21T06:02:51.133Z,18.30
2022-09-21T06:05:22.813Z,20.60
2022-09-21T06:07:56.774Z,20.50
2022-09-21T06:10:30.327Z,21.60
2022-09-21T06:13:04.510Z,18.90
2022-09-21T06:15:38.539Z,22.70
2022-09-21T06:18:17.756Z,23.30
2022-09-21T06:20:51.537Z,24.20
2022-09-21T06:25:58.292Z,22.30
2022-09-21T06:28:29.991Z,23.80
2022-09-21T06:31:04.114Z,23.70
2022-09-21T06:33:37.913Z,23.80
2022-09-21T06:36:08.745Z,24.30
2022-09-21T06:38:39.896Z,22.00
2022-09-21T06:41:10.729Z,22.30
2022-09-21T06:43:41.203Z,23.00
2022-09-21T06:46:13.329Z,24.00
2022-09-21T06:48:43.882Z,25.50
2022-09-21T06:51:14.518Z,19.40
2022-09-21T06:53:45.115Z,21.00
2022-09-21T06:56:16.775Z,20.10
2022-09-21T06:58:47.727Z,21.20
2022-09-21T07:01:18.605Z,20.60
2022-09-21T07:03:50.173Z,21.40
2022-09-21T07:06:22.107Z,21.80
2022-09-21T07:11:45.645Z,19.50
2022-09-21T07:14:17.210Z,19.40
2022-09-21T07:16:48.050Z,22.40
2022-09-21T07:19:19.284Z,20.40
2022-09-21T07:21:50.211Z,18.90
2022-09-21T07:24:20.740Z,17.10
2022-09-21T07:26:51.322Z,21.50
2022-09-21T07:29:22.371Z,16.20
2022-09-21T07:31:58.976Z,20.40
2022-09-21T07:34:29.451Z,18.60
2022-09-21T07:37:00.880Z,18.20
2022-09-21T07:39:32.549Z,15.80
2022-09-21T07:42:03.395Z,15.70
2022-09-21T07:44:34.495Z,16.80
2022-09-21T07:47:05.482Z,19.90
2022-09-21T07:49:35.858Z,19.20
2022-09-21T07:52:10.984Z,15.60
2022-09-21T07:54:42.094Z,14.90
2022-09-21T07:57:30.478Z,14.70
2022-09-21T08:00:01.482Z,15.70
2022-09-21T08:02:47.485Z,16.60
2022-09-21T08:05:18.345Z,16.90
2022-09-21T08:07:48.862Z,14.80
2022-09-21T08:10:19.496Z,14.50
2022-09-21T08:12:49.865Z,16.60
2022-09-21T08:15:46.895Z,14.90
2022-09-21T08:18:11.395Z,15.10
2022-09-21T08:20:42.917Z,13.60
2022-09-21T08:23:15.330Z,13.50
2022-09-21T08:25:45.881Z,12.80
2022-09-21T08:28:16.658Z,14.30
2022-09-21T08:30:47.180Z,15.30
2022-09-21T08:33:17.774Z,15.50
2022-09-21T08:35:54.773Z,14.90
2022-09-21T08:38:25.739Z,13.20
2022-09-21T08:40:56.973Z,17.20
2022-09-21T08:43:31.448Z,13.80
2022-09-21T08:46:02.374Z,14.10
2022-09-21T08:48:38.280Z,21.90
2022-09-21T08:51:10.359Z,14.90
2022-09-21T08:53:44.459Z,14.50
2022-09-21T08:56:15.702Z,14.90
2022-09-21T08:58:46.685Z,15.50
2022-09-21T09:01:31.076Z,14.10
2022-09-21T09:04:12.056Z,14.20
2022-09-21T09:06:48.040Z,12.00
2022-09-21T09:09:34.743Z,11.00
2022-09-21T09:12:13.106Z,11.30
2022-09-21T09:15:05.368Z,13.40
2022-09-21T09:17:43.437Z,9.50
2022-09-21T09:20:17.094Z,8.90
2022-09-21T09:22:49.975Z,9.10
2022-09-21T09:25:22.857Z,10.00
2022-09-21T09:27:55.022Z,11.00
2022-09-21T09:30:27.827Z,9.80
2022-09-21T09:33:01.635Z,10.30
2022-09-21T09:35:35.819Z,10.30
2022-09-21T09:38:11.695Z,7.60
2022-09-21T09:40:56.829Z,7.10
2022-09-21T09:43:36.938Z,8.80
2022-09-21T09:46:14.018Z,8.10
2022-09-21T09:48:54.550Z,9.50
2022-09-21T09:51:29.185Z,9.30
2022-09-21T09:54:01.183Z,9.10
2022-09-21T09:56:34.939Z,8.10
2022-09-21T09:59:08.545Z,8.70
2022-09-21T10:01:42.761Z,6.50
2022-09-21T10:04:16.297Z,6.70
2022-09-21T10:09:27.239Z,5.80
2022-09-21T10:11:59.562Z,6.20
2022-09-21T10:14:34.136Z,5.80
2022-09-21T10:17:06.870Z,6.20
2022-09-21T10:19:38.492Z,7.60
2022-09-21T10:22:16.572Z,5.80
2022-09-21T10:24:51.151Z,7.00
2022-09-21T10:27:24.009Z,5.50
2022-09-21T10:29:54.742Z,7.80
2022-09-21T10:32:26.791Z,6.60
2022-09-21T10:35:14.200Z,6.20
2022-09-21T10:37:46.592Z,5.00
2022-09-21T10:40:30.970Z,5.20
2022-09-21T10:43:01.968Z,5.20
2022-09-21T10:45:33.106Z,6.60
2022-09-21T10:48:10.969Z,8.40
2022-09-21T10:50:41.899Z,5.60
2022-09-21T10:53:21.251Z,5.40
2022-09-21T10:56:11.738Z,8.20
2022-09-21T10:59:08.674Z,6.10
2022-09-21T11:01:44.889Z,5.70
2022-09-21T11:04:18.481Z,6.00
2022-09-21T11:06:50.373Z,6.80
2022-09-21T11:09:23.802Z,6.10
2022-09-21T11:14:31.040Z,6.00
2022-09-21T11:17:05.120Z,6.40
2022-09-21T11:19:39.168Z,6.70
2022-09-21T11:22:13.754Z,6.10
2022-09-21T11:24:48.493Z,7.00
2022-09-21T11:27:22.761Z,6.60
2022-09-21T11:29:59.427Z,6.70
2022-09-21T11:32:35.067Z,7.80
2022-09-21T11:35:19.008Z,8.00
2022-09-21T11:37:57.971Z,7.40
2022-09-21T11:40:33.473Z,7.70
2022-09-21T11:43:09.219Z,9.80
2022-09-21T11:45:50.603Z,9.60
2022-09-21T11:48:25.490Z,8.70
2022-09-21T11:51:01.068Z,8.80
2022-09-21T11:53:43.132Z,9.00
2022-09-21T11:56:22.914Z,9.30
2022-09-21T11:59:01.403Z,9.20
2022-09-21T12:01:41.174Z,9.00
2022-09-21T12:04:30.436Z,9.20
2022-09-21T12:07:07.769Z,9.50
2022-09-21T12:09:48.430Z,9.60
2022-09-21T12:12:21.429Z,10.50
2022-09-21T12:14:59.196Z,7.60
2022-09-21T12:17:33.255Z,10.10
2022-09-21T12:20:08.052Z,8.50
2022-09-21T12:22:40.077Z,10.90
2022-09-21T12:25:17.429Z,7.40
2022-09-21T12:27:51.789Z,7.90
2022-09-21T12:30:23.657Z,6.70
2022-09-21T12:32:57.004Z,5.60
2022-09-21T12:35:31.589Z,7.80
2022-09-21T12:38:04.359Z,7.30
2022-09-21T12:40:39.068Z,7.70
2022-09-21T12:43:14.879Z,6.80
2022-09-21T12:45:48.280Z,6.20
2022-09-21T12:48:25.408Z,6.50
2022-09-21T12:51:00.383Z,8.10
2022-09-21T12:53:34.759Z,9.10
2022-09-21T12:56:10.194Z,6.10
2022-09-21T12:58:45.956Z,6.70
2022-09-21T13:01:22.349Z,6.20
2022-09-21T13:04:02.261Z,6.10
2022-09-21T13:06:41.500Z,7.40
2022-09-21T13:09:14.811Z,5.40
2022-09-21T13:14:17.236Z,5.60
2022-09-21T13:19:23.294Z,7.80
2022-09-21T13:22:07.630Z,7.60
2022-09-21T13:24:38.657Z,8.60
2022-09-21T13:27:09.727Z,5.40
2022-09-21T13:29:40.826Z,11.70
2022-09-21T13:32:32.574Z,6.50
2022-09-21T13:35:17.056Z,7.40
2022-09-21T13:38:07.706Z,8.90
2022-09-21T13:40:38.789Z,7.40
2022-09-21T13:43:23.514Z,8.20
2022-09-21T13:45:55.441Z,5.90
2022-09-21T13:48:29.836Z,7.30
2022-09-21T13:51:08.408Z,8.70
2022-09-21T13:53:41.616Z,8.40
2022-09-21T13:56:18.679Z,7.80
2022-09-21T13:58:52.507Z,6.20
2022-09-21T14:01:45.888Z,7.10
2022-09-21T14:04:24.841Z,7.80
2022-09-21T14:06:56.935Z,5.50
2022-09-21T14:09:29.050Z,7.40
2022-09-21T14:12:02.223Z,8.90
2022-09-21T14:14:34.312Z,6.60
2022-09-21T14:17:05.505Z,8.90
2022-09-21T14:20:07.450Z,9.60
2022-09-21T14:22:42.527Z,6.30
2022-09-21T14:25:27.572Z,6.70
2022-09-21T14:28:02.296Z,5.10
2022-09-21T14:30:36.752Z,5.10
2022-09-21T14:33:18.787Z,5.50
2022-09-21T14:35:49.547Z,5.10
2022-09-21T14:38:22.025Z,3.90
2022-09-21T14:40:53.164Z,4.20
2022-09-21T14:43:35.340Z,4.70
2022-09-21T14:46:21.764Z,3.70
2022-09-21T14:48:59.334Z,4.10
2022-09-21T14:51:36.422Z,4.20
2022-09-21T14:54:18.906Z,5.00
2022-09-21T14:59:38.577Z,4.40
2022-09-21T15:02:15.722Z,5.40
2022-09-21T15:04:54.494Z,3.40
2022-09-21T15:07:51.392Z,4.20
2022-09-21T15:10:43.124Z,4.60
2022-09-21T15:16:55.615Z,4.10
2022-09-21T15:19:27.534Z,3.70
2022-09-21T15:22:10.709Z,4.20
2022-09-21T15:24:50.493Z,3.90
2022-09-21T15:27:25.365Z,9.10
2022-09-21T15:29:56.913Z,5.10
2022-09-21T15:32:31.582Z,6.90
2022-09-21T15:35:03.077Z,6.90
2022-09-21T15:37:39.715Z,4.50
2022-09-21T15:40:17.068Z,5.60
2022-09-21T15:43:19.695Z,4.60
2022-09-21T15:45:54.953Z,5.90
2022-09-21T15:48:26.201Z,5.00
2022-09-21T15:51:00.078Z,6.00
2022-09-21T15:53:32.969Z,5.60
2022-09-21T15:56:04.752Z,5.20
2022-09-21T15:58:37.416Z,4.80
2022-09-21T16:01:24.660Z,6.80
2022-09-21T16:04:06.315Z,3.60
2022-09-21T16:06:39.551Z,6.20
2022-09-21T16:09:27.286Z,4.00
2022-09-21T16:11:59.825Z,3.30
2022-09-21T16:14:47.656Z,5.20
2022-09-21T16:17:23.932Z,3.10
2022-09-21T16:20:19.891Z,2.90
2022-09-21T16:22:51.983Z,2.40
2022-09-21T16:25:34.410Z,3.00
2022-09-21T16:28:11.291Z,2.60
2022-09-21T16:30:44.961Z,3.20
2022-09-21T16:33:43.268Z,2.60
2022-09-21T16:36:32.866Z,4.20
2022-09-21T16:39:07.427Z,3.10
2022-09-21T16:41:41.661Z,4.40
2022-09-21T16:44:21.198Z,5.20
2022-09-21T16:46:54.239Z,3.30
2022-09-21T16:49:30.024Z,4.30
2022-09-21T16:52:08.318Z,3.20
2022-09-21T16:54:39.183Z,3.10
2022-09-21T16:57:12.430Z,3.50
2022-09-21T16:59:43.567Z,3.40
2022-09-21T17:02:15.435Z,3.50
2022-09-21T17:04:47.681Z,3.50
2022-09-21T17:07:19.123Z,6.10
2022-09-21T17:09:50.144Z,3.20
2022-09-21T17:12:22.331Z,5.00
2022-09-21T17:14:53.306Z,6.60
2022-09-21T17:17:24.840Z,4.30
2022-09-21T17:19:55.733Z,3.90
2022-09-21T17:22:29.330Z,4.70
2022-09-21T17:24:59.967Z,3.80
2022-09-21T17:27:30.592Z,9.20
2022-09-21T17:30:03.647Z,4.40
2022-09-21T17:32:38.835Z,7.30
2022-09-21T17:35:15.916Z,4.30
2022-09-21T17:37:47.080Z,4.00
2022-09-21T17:40:18.400Z,5.20
2022-09-21T17:44:13.803Z,4.50
2022-09-21T17:46:46.126Z,5.20
2022-09-21T17:49:14.860Z,6.20
2022-09-21T17:52:01.780Z,5.40
2022-09-21T17:54:30.400Z,8.70
2022-09-21T17:57:04.776Z,6.10
2022-09-21T17:59:33.829Z,7.20
2022-09-21T18:02:03.599Z,9.80
2022-09-21T18:04:34.625Z,8.60
2022-09-21T18:07:03.416Z,8.80
2022-09-21T18:09:31.909Z,10.40
2022-09-21T18:12:14.419Z,9.30
2022-09-21T18:14:45.848Z,9.70
2022-09-21T18:17:22.159Z,8.20
2022-09-21T18:19:58.019Z,12.20
2022-09-21T18:22:31.257Z,10.40
2022-09-21T18:27:26.957Z,11.00
2022-09-21T18:29:58.330Z,13.30
2022-09-21T18:32:36.183Z,15.20
2022-09-21T18:35:21.110Z,17.90
2022-09-21T18:37:59.624Z,15.50
2022-09-21T18:40:35.092Z,14.00
2022-09-21T18:43:07.535Z,17.30
2022-09-21T18:45:38.584Z,19.00
2022-09-21T18:48:19.208Z,22.20
2022-09-21T18:50:49.887Z,17.70
2022-09-21T18:53:21.432Z,19.70
2022-09-21T18:55:50.222Z,22.40
2022-09-21T18:58:18.777Z,16.80
2022-09-21T19:00:48.600Z,18.20
2022-09-21T19:03:18.869Z,17.90
2022-09-21T19:05:51.966Z,20.40
2022-09-21T19:08:22.261Z,18.50
2022-09-21T19:10:54.373Z,19.30
2022-09-21T19:13:33.335Z,22.50
2022-09-21T19:16:06.518Z,18.20
2022-09-21T19:18:43.098Z,18.70
2022-09-21T19:21:15.791Z,18.20
2022-09-21T19:23:58.755Z,18.50
2022-09-21T19:26:29.832Z,17.70
2022-09-21T19:29:12.950Z,17.40
2022-09-21T19:31:41.244Z,18.70
2022-09-21T19:34:13.398Z,19.60
2022-09-21T19:36:42.187Z,17.10
2022-09-21T19:39:10.892Z,16.80
2022-09-21T19:41:42.708Z,17.20
2022-09-21T19:44:18.357Z,18.10
2022-09-21T19:47:00.374Z,19.40
2022-09-21T19:49:34.790Z,15.90
2022-09-21T19:52:04.397Z,18.50
2022-09-21T19:54:51.721Z,20.80
2022-09-21T19:57:38.736Z,16.70
2022-09-21T20:00:08.759Z,18.70
2022-09-21T20:02:39.824Z,17.80
2022-09-21T20:05:10.786Z,17.60
2022-09-21T20:07:44.134Z,18.40
2022-09-21T20:10:25.310Z,18.50
2022-09-21T20:12:57.143Z,20.00
2022-09-21T20:15:28.923Z,23.60
2022-09-21T20:18:00.063Z,23.50
2022-09-21T20:20:28.547Z,24.20
2022-09-21T20:22:57.952Z,23.00
2022-09-21T20:25:27.676Z,23.30
2022-09-21T20:27:56.135Z,22.70
2022-09-21T20:30:26.136Z,26.00
2022-09-21T20:32:55.716Z,22.00
2022-09-21T20:35:25.056Z,22.80
2022-09-21T20:37:54.437Z,22.50
2022-09-21T20:40:26.301Z,22.10
2022-09-21T20:42:56.850Z,21.10
2022-09-21T20:45:25.734Z,24.50
2022-09-21T20:47:54.424Z,25.30
2022-09-21T20:50:23.057Z,19.90
2022-09-21T20:52:51.616Z,23.20
2022-09-21T20:55:20.082Z,23.30
2022-09-21T20:57:47.941Z,23.50
2022-09-21T21:00:16.626Z,22.50
2022-09-21T21:02:44.485Z,21.00
2022-09-21T21:05:12.363Z,24.50
2022-09-21T21:07:42.004Z,24.60
2022-09-21T21:10:12.844Z,26.10
2022-09-21T21:12:43.710Z,24.00
2022-09-21T21:15:12.073Z,25.20
2022-09-21T21:17:40.034Z,26.80
2022-09-21T21:20:09.250Z,23.30
2022-09-21T21:22:37.381Z,23.50
2022-09-21T21:25:06.102Z,24.50
2022-09-21T21:27:35.568Z,24.60
2022-09-21T21:30:04.126Z,24.10
2022-09-21T21:32:32.249Z,22.30
2022-09-21T21:35:01.996Z,21.60
2022-09-21T21:37:29.845Z,24.60
2022-09-21T21:39:58.038Z,28.30
2022-09-21T21:42:25.800Z,23.10
2022-09-21T21:44:53.470Z,26.30
2022-09-21T21:47:39.127Z,24.00
2022-09-21T21:50:09.177Z,24.40
2022-09-21T21:52:36.823Z,24.80
2022-09-21T21:55:05.000Z,28.00
2022-09-21T21:57:33.331Z,24.90
2022-09-21T22:00:01.434Z,24.50
2022-09-21T22:02:29.185Z,27.50
2022-09-21T22:04:57.243Z,31.10
2022-09-21T22:07:24.839Z,26.10
2022-09-21T22:09:52.334Z,26.50
2022-09-21T22:12:21.564Z,26.00
2022-09-21T22:14:49.437Z,25.40
2022-09-21T22:17:18.869Z,24.10
2022-09-21T22:19:46.735Z,27.30
2022-09-21T22:22:14.498Z,28.30
2022-09-21T22:24:42.065Z,26.60
2022-09-21T22:27:10.026Z,24.70
2022-09-21T22:29:39.217Z,25.80
2022-09-21T22:32:06.744Z,27.00
2022-09-21T22:34:35.459Z,24.20
2022-09-21T22:37:03.117Z,24.20
2022-09-21T22:39:31.809Z,26.60
2022-09-21T22:42:01.307Z,25.70
2022-09-21T22:44:28.968Z,27.30
2022-09-21T22:46:56.549Z,24.30
2022-09-21T22:49:24.542Z,21.00
2022-09-21T22:51:52.364Z,22.60
2022-09-21T22:54:19.924Z,24.40
2022-09-21T22:56:47.992Z,24.80
2022-09-21T22:59:15.659Z,24.00
2022-09-21T23:01:44.146Z,22.80
2022-09-21T23:04:12.981Z,25.30
2022-09-21T23:06:41.713Z,25.90
2022-09-21T23:09:11.943Z,28.70
2022-09-21T23:11:42.355Z,26.30
2022-09-21T23:14:11.451Z,26.40
2022-09-21T23:16:42.675Z,26.90
2022-09-21T23:19:15.335Z,25.50
2022-09-21T23:21:44.058Z,27.00
2022-09-21T23:24:12.443Z,27.10
2022-09-21T23:26:41.224Z,27.30
2022-09-21T23:29:11.325Z,27.60
2022-09-21T23:31:44.359Z,27.50
2022-09-21T23:34:13.846Z,28.10
2022-09-21T23:36:42.313Z,27.10
2022-09-21T23:39:10.998Z,28.10
2022-09-21T23:41:39.478Z,28.20
2022-09-21T23:44:07.251Z,26.80
2022-09-21T23:46:36.311Z,26.50
2022-09-21T23:49:05.200Z,27.20
2022-09-21T23:51:33.607Z,29.50
2022-09-21T23:54:01.453Z,25.30
2022-09-21T23:56:29.729Z,31.20
2022-09-21T23:58:58.332Z,27.50
